Etusivu
METAR-TAF:

METAR-TAF

Lentoasemat :

Savonlinna, Suomi

Savonlinnan lentoasema

Leveyspiiri: 61-57N, Pituuspiiri: 028-57E, korkeus merenpinnasta: 95 m

Tämänhetkinen sää

Tämä raportti tehtiin 21 minuuttia sitten, kello 22.50 UTC
Tuuli 6 kn lounaasta, vaihdellen etelän/kaakon ja lännen välillä
Lämpötila 3°C
Kosteus 81%
Ilmanpaine 998 hPa
Näkyvyys 10 km tai enemmän
Pilvistä 2200 ft:n korkeudessa

METAR: EFSA 172250Z AUTO 23006KT 160V270 9999 OVC022 03/M00 Q0998

Aika: 01:11 (23:11 UTC)

Sääennuste

Tämä raportti tehtiin 5 tuntia ja 43 minuuttia sitten, kello 17.28 UTC
Ennuste voimassa 17. päivästä klo 18 UTC - 17. päivään klo 21 UTC
Tuuli 10 kn lounaasta
Näkyvyys 10 km tai enemmän
Hajonneita pilviä 2000 ft:n korkeudessa
Todennäköisyys 30%
17. päivästä klo 18 UTC - 17. päivään klo 19 UTC
Hajonneita pilviä 1300 ft:n korkeudessa

TAF: EFSA 171728Z 1718/1721 22010KT 9999 BKN020 PROB30 1718/1719 BKN013

Säähavainnot ja -ennusteet yli 4000 lentoasemalta (METAR- ja TAF-raportit).

Käytössä olevat sääasemat on merkitty karttaan keltaisilla ja punaisilla pisteillä.

Aseta hiiri pisteen päälle nähdäksesi sääaseman nimen.

Klikkaa sitten nähdäksesi säähavainnot ja -ennusteet.

Kartan vaihtaminen: klikkaa mustalla rastilla varustettuja vihreitä pisteitä, niin voit zoomata sisään; viivalla varustettua vihreää pistettä, niin voit zoomata ulos tai vihreitä nuolia, niin pääset viereisille kartoille.


METAR-TAF: